EST,Max TemperatureF,Mean TemperatureF,Min TemperatureF,Max Dew PointF,MeanDew PointF,Min DewpointF,Max Humidity, Mean Humidity, Min Humidity, Max Sea Level PressureIn, Mean Sea Level PressureIn, Min Sea Level PressureIn, Max VisibilityMiles, Mean VisibilityMiles, Min VisibilityMiles, Max Wind SpeedMPH, Mean Wind SpeedMPH, Max Gust SpeedMPH,PrecipitationIn, CloudCover, Events, WindDirDegrees
2012-12-1,68,56,44,57,52,45,100,86,56,30.39,30.34,30.31,10,8,4,7,1,,0.00,4,,68
2012-12-2,71,60,48,61,56,48,100,87,64,30.39,30.33,30.29,10,8,2,7,1,,0.00,3,,86
2012-12-3,75,62,48,63,56,48,100,90,61,30.34,30.30,30.26,10,6,0,10,1,,0.00,4,Fog,194
2012-12-4,75,65,55,63,59,55,100,86,57,30.36,30.29,30.25,10,9,5,10,1,,0.00,4,,205
2012-12-5,75,62,48,59,54,48,100,81,44,30.25,30.18,30.11,10,9,2,7,1,,0.00,0,,264
2012-12-6,64,58,51,54,50,45,88,76,68,30.20,30.16,30.13,10,10,9,9,6,16,0.00,5,,38
2012-12-7,62,56,51,57,52,45,100,86,76,30.13,30.05,29.99,10,7,0,9,5,,0.00,8,Fog,355
2012-12-8,69,61,53,59,55,54,100,92,64,30.10,30.06,30.01,10,4,0,8,3,,0.00,4,Fog,317
2012-12-9,78,64,51,66,60,52,100,90,65,30.15,30.07,29.99,10,7,2,7,1,,0.00,2,,156
2012-12-10,71,66,60,68,63,59,100,90,64,29.98,29.89,29.81,10,6,0,16,4,22,0.00,3,Fog-Thunderstorm,213
2012-12-11,71,66,60,66,63,57,100,89,78,30.07,29.94,29.80,10,7,2,10,6,,0.00,5,Rain,258
2012-12-12,60,53,46,59,53,45,100,95,88,30.21,30.14,30.06,10,6,1,10,4,21,0.70,8,Rain,8
2012-12-13,48,45,42,45,44,41,100,94,87,30.32,30.25,30.16,10,9,2,12,8,21,0.03,7,Rain,2
2012-12-14,62,50,39,45,42,37,100,81,48,30.37,30.29,30.22,10,9,6,8,5,,0.00,3,,6
2012-12-15,62,55,48,57,50,41,100,86,72,30.24,30.17,30.11,10,7,0,7,2,,0.00,7,Fog,9
2012-12-16,73,62,51,64,60,52,100,93,69,30.11,30.02,29.91,10,7,0,12,2,,0.00,4,Fog,169
2012-12-17,68,64,60,64,62,57,100,91,82,29.91,29.84,29.73,10,9,1,12,7,20,0.34,3,Rain-Thunderstorm,220
2012-12-18,68,55,42,61,48,34,100,69,30,30.01,29.85,29.77,10,10,8,20,7,25,0.00,2,,271
2012-12-19,69,53,37,48,39,32,100,71,25,30.13,30.07,30.01,10,10,10,13,3,,0.00,0,,255
2012-12-20,71,55,39,64,53,39,100,86,53,30.13,29.95,29.67,10,8,1,25,6,39,0.82,2,Rain,180
2012-12-21,57,50,42,46,30,23,67,50,35,29.99,29.86,29.73,10,10,10,24,16,38,0.00,1,,283
2012-12-22,57,46,35,32,23,18,87,48,21,30.19,30.12,29.98,10,10,10,16,9,26,0.00,0,,286
2012-12-23,57,44,32,43,32,27,93,62,33,30.22,30.15,30.11,10,10,10,8,2,,0.00,0,,241
2012-12-24,64,53,42,54,44,37,94,70,37,30.14,30.03,29.93,10,10,9,13,3,17,0.00,2,,215
2012-12-25,60,55,50,55,54,50,100,91,77,30.09,30.01,29.95,10,9,0,8,2,20,0.35,6,Fog-Rain,52
2012-12-26,68,56,42,64,53,32,100,80,49,29.93,29.71,29.54,10,7,0,21,10,41,1.12,4,Rain-Thunderstorm,225
2012-12-27,55,45,35,41,35,32,100,72,44,30.08,29.97,29.83,10,10,5,17,9,25,0.00,0,,289
2012-12-28,57,45,33,48,42,34,100,88,67,30.16,30.08,29.94,10,8,3,6,1,,0.00,1,,59
2012-12-29,66,55,42,64,47,32,100,80,58,30.06,29.84,29.69,10,8,0,21,7,29,2.50,5,Rain,287
2012-12-30,51,42,32,32,29,23,100,65,33,30.45,30.37,30.07,10,10,6,13,7,21,0.00,0,,334
2012-12-31,60,45,30,46,37,28,100,81,44,30.44,30.34,30.21,10,9,5,8,0,,0.00,2,,175